sensor_id;sensor_type;location;lat;lon;timestamp;pressure;altitude;pressure_sealevel;temperature;humidity
7333;BME280;3707;43.618;25.342;2023-06-01T00:01:43;100202.84;;;20.34;100.00
7333;BME280;3707;43.618;25.342;2023-06-01T00:04:10;100187.47;;;20.15;100.00
7333;BME280;3707;43.618;25.342;2023-06-01T00:06:37;100207.34;;;20.30;100.00
7333;BME280;3707;43.618;25.342;2023-06-01T00:09:03;100166.34;;;20.17;100.00
7333;BME280;3707;43.618;25.342;2023-06-01T00:11:30;100160.44;;;20.07;100.00
7333;BME280;3707;43.618;25.342;2023-06-01T00:13:58;100178.56;;;20.19;100.00
7333;BME280;3707;43.618;25.342;2023-06-01T00:16:25;100112.75;;;19.81;100.00
7333;BME280;3707;43.618;25.342;2023-06-01T00:18:53;100179.75;;;20.06;100.00
7333;BME280;3707;43.618;25.342;2023-06-01T00:21:21;100185.81;;;20.11;100.00
7333;BME280;3707;43.618;25.342;2023-06-01T00:23:49;100107.16;;;19.56;100.00
7333;BME280;3707;43.618;25.342;2023-06-01T00:26:16;100080.41;;;19.35;100.00
7333;BME280;3707;43.618;25.342;2023-06-01T00:28:42;100130.63;;;19.67;100.00
7333;BME280;3707;43.618;25.342;2023-06-01T00:31:11;100190.44;;;20.00;100.00
7333;BME280;3707;43.618;25.342;2023-06-01T00:33:37;100150.03;;;19.61;100.00
7333;BME280;3707;43.618;25.342;2023-06-01T00:36:05;100146.59;;;19.58;100.00
7333;BME280;3707;43.618;25.342;2023-06-01T00:38:31;100187.16;;;19.89;100.00
7333;BME280;3707;43.618;25.342;2023-06-01T00:40:58;100161.31;;;19.68;100.00
7333;BME280;3707;43.618;25.342;2023-06-01T00:43:25;100121.53;;;19.40;100.00
7333;BME280;3707;43.618;25.342;2023-06-01T00:45:52;100179.50;;;19.78;100.00
7333;BME280;3707;43.618;25.342;2023-06-01T00:48:20;100110.91;;;19.45;100.00
7333;BME280;3707;43.618;25.342;2023-06-01T00:50:49;100165.78;;;19.63;100.00
7333;BME280;3707;43.618;25.342;2023-06-01T00:53:17;100110.22;;;19.33;100.00
7333;BME280;3707;43.618;25.342;2023-06-01T00:55:45;100027.63;;;18.58;100.00
7333;BME280;3707;43.618;25.342;2023-06-01T00:58:11;100130.88;;;19.09;100.00
7333;BME280;3707;43.618;25.342;2023-06-01T01:00:39;100121.34;;;19.03;100.00
7333;BME280;3707;43.618;25.342;2023-06-01T01:03:06;100186.47;;;19.33;100.00
7333;BME280;3707;43.618;25.342;2023-06-01T01:05:36;100094.31;;;18.97;100.00
7333;BME280;3707;43.618;25.342;2023-06-01T01:08:09;100190.47;;;19.56;100.00
7333;BME280;3707;43.618;25.342;2023-06-01T01:10:41;100178.50;;;19.40;100.00
7333;BME280;3707;43.618;25.342;2023-06-01T01:13:13;100110.91;;;19.00;100.00
7333;BME280;3707;43.618;25.342;2023-06-01T01:15:51;100196.72;;;19.50;100.00
7333;BME280;3707;43.618;25.342;2023-06-01T01:18:24;100185.78;;;19.25;100.00
7333;BME280;3707;43.618;25.342;2023-06-01T01:21:01;100117.16;;;18.93;100.00
7333;BME280;3707;43.618;25.342;2023-06-01T01:23:48;100202.06;;;19.47;100.00
7333;BME280;3707;43.618;25.342;2023-06-01T01:26:30;100192.88;;;19.20;100.00
7333;BME280;3707;43.618;25.342;2023-06-01T01:29:06;100106.09;;;18.76;100.00
7333;BME280;3707;43.618;25.342;2023-06-01T01:31:34;100123.69;;;18.71;100.00
7333;BME280;3707;43.618;25.342;2023-06-01T01:34:03;100196.81;;;18.95;100.00
7333;BME280;3707;43.618;25.342;2023-06-01T01:36:30;100082.50;;;18.21;100.00
7333;BME280;3707;43.618;25.342;2023-06-01T01:38:57;100193.56;;;18.81;100.00
7333;BME280;3707;43.618;25.342;2023-06-01T01:41:23;100182.38;;;18.70;100.00
7333;BME280;3707;43.618;25.342;2023-06-01T01:43:51;100186.78;;;18.68;100.00
7333;BME280;3707;43.618;25.342;2023-06-01T01:46:23;100125.94;;;18.39;100.00
7333;BME280;3707;43.618;25.342;2023-06-01T01:48:55;100191.94;;;18.74;100.00
7333;BME280;3707;43.618;25.342;2023-06-01T01:51:29;100097.53;;;18.11;100.00
7333;BME280;3707;43.618;25.342;2023-06-01T01:53:56;100099.94;;;18.25;100.00
7333;BME280;3707;43.618;25.342;2023-06-01T01:56:25;100170.88;;;18.77;100.00
7333;BME280;3707;43.618;25.342;2023-06-01T01:58:53;100171.72;;;18.77;100.00
7333;BME280;3707;43.618;25.342;2023-06-01T02:01:22;100094.63;;;18.29;100.00
7333;BME280;3707;43.618;25.342;2023-06-01T02:03:58;100118.94;;;18.41;100.00
7333;BME280;3707;43.618;25.342;2023-06-01T02:06:25;100189.31;;;18.74;100.00
7333;BME280;3707;43.618;25.342;2023-06-01T02:08:52;100145.91;;;18.49;100.00
7333;BME280;3707;43.618;25.342;2023-06-01T02:11:19;100183.31;;;18.66;100.00
7333;BME280;3707;43.618;25.342;2023-06-01T02:13:46;100188.03;;;18.44;100.00
7333;BME280;3707;43.618;25.342;2023-06-01T02:16:13;100095.28;;;17.84;100.00
7333;BME280;3707;43.618;25.342;2023-06-01T02:18:43;100174.13;;;18.36;100.00
7333;BME280;3707;43.618;25.342;2023-06-01T02:21:11;100132.56;;;18.06;100.00
7333;BME280;3707;43.618;25.342;2023-06-01T02:23:38;100084.88;;;17.78;100.00
7333;BME280;3707;43.618;25.342;2023-06-01T02:26:06;100111.78;;;17.92;100.00
7333;BME280;3707;43.618;25.342;2023-06-01T02:28:33;100056.31;;;17.55;100.00
7333;BME280;3707;43.618;25.342;2023-06-01T02:30:59;100157.84;;;18.13;100.00
7333;BME280;3707;43.618;25.342;2023-06-01T02:33:26;100121.19;;;18.07;100.00
7333;BME280;3707;43.618;25.342;2023-06-01T02:35:54;100136.44;;;18.39;100.00
7333;BME280;3707;43.618;25.342;2023-06-01T02:38:22;100126.88;;;18.36;100.00
7333;BME280;3707;43.618;25.342;2023-06-01T02:40:49;100190.19;;;18.74;100.00
7333;BME280;3707;43.618;25.342;2023-06-01T02:43:15;100116.38;;;18.34;100.00
7333;BME280;3707;43.618;25.342;2023-06-01T02:45:42;100138.94;;;18.48;100.00
7333;BME280;3707;43.618;25.342;2023-06-01T02:48:09;100171.84;;;18.70;100.00
7333;BME280;3707;43.618;25.342;2023-06-01T02:50:36;100192.78;;;18.76;100.00
7333;BME280;3707;43.618;25.342;2023-06-01T02:53:04;100147.69;;;18.51;100.00
7333;BME280;3707;43.618;25.342;2023-06-01T02:55:31;100131.22;;;18.39;100.00
7333;BME280;3707;43.618;25.342;2023-06-01T02:57:58;100119.94;;;18.32;100.00
7333;BME280;3707;43.618;25.342;2023-06-01T03:00:25;100178.03;;;18.69;100.00
7333;BME280;3707;43.618;25.342;2023-06-01T03:02:52;100209.91;;;18.98;100.00
7333;BME280;3707;43.618;25.342;2023-06-01T03:05:19;100206.25;;;19.08;100.00
7333;BME280;3707;43.618;25.342;2023-06-01T03:07:46;100139.28;;;18.80;100.00
7333;BME280;3707;43.618;25.342;2023-06-01T03:10:15;100156.94;;;19.19;100.00
7333;BME280;3707;43.618;25.342;2023-06-01T03:12:42;100202.31;;;19.30;100.00
7333;BME280;3707;43.618;25.342;2023-06-01T03:15:12;100212.59;;;19.46;100.00
7333;BME280;3707;43.618;25.342;2023-06-01T03:17:38;100217.72;;;19.53;100.00
7333;BME280;3707;43.618;25.342;2023-06-01T03:20:06;100209.09;;;19.88;100.00
7333;BME280;3707;43.618;25.342;2023-06-01T03:22:40;100218.13;;;20.18;100.00
7333;BME280;3707;43.618;25.342;2023-06-01T03:25:08;100228.34;;;20.70;100.00
7333;BME280;3707;43.618;25.342;2023-06-01T03:27:38;100241.94;;;21.25;100.00
7333;BME280;3707;43.618;25.342;2023-06-01T03:30:05;100260.84;;;21.75;100.00
7333;BME280;3707;43.618;25.342;2023-06-01T03:32:35;100270.19;;;22.17;100.00
7333;BME280;3707;43.618;25.342;2023-06-01T03:35:03;100282.91;;;22.62;100.00
7333;BME280;3707;43.618;25.342;2023-06-01T03:37:32;100199.03;;;22.41;100.00
7333;BME280;3707;43.618;25.342;2023-06-01T03:39:59;100192.31;;;22.86;100.00
7333;BME280;3707;43.618;25.342;2023-06-01T03:42:26;100247.69;;;23.68;100.00
7333;BME280;3707;43.618;25.342;2023-06-01T03:44:54;100202.72;;;23.66;100.00
7333;BME280;3707;43.618;25.342;2023-06-01T03:47:21;100287.75;;;24.07;100.00
7333;BME280;3707;43.618;25.342;2023-06-01T03:49:48;100285.41;;;24.23;100.00
7333;BME280;3707;43.618;25.342;2023-06-01T03:52:15;100276.41;;;24.50;100.00
7333;BME280;3707;43.618;25.342;2023-06-01T03:54:43;100273.03;;;24.46;100.00
7333;BME280;3707;43.618;25.342;2023-06-01T03:57:10;100292.16;;;24.31;100.00
7333;BME280;3707;43.618;25.342;2023-06-01T03:59:37;100294.13;;;24.01;100.00
7333;BME280;3707;43.618;25.342;2023-06-01T04:02:05;100294.22;;;23.75;100.00
7333;BME280;3707;43.618;25.342;2023-06-01T04:04:35;100150.81;;;22.60;100.00
7333;BME280;3707;43.618;25.342;2023-06-01T04:07:02;100292.06;;;24.09;100.00
7333;BME280;3707;43.618;25.342;2023-06-01T04:09:29;100307.38;;;24.94;100.00
7333;BME280;3707;43.618;25.342;2023-06-01T04:11:56;100303.47;;;25.67;98.32
7333;BME280;3707;43.618;25.342;2023-06-01T04:14:23;100228.09;;;25.49;92.85
7333;BME280;3707;43.618;25.342;2023-06-01T04:16:50;100258.41;;;25.84;92.10
7333;BME280;3707;43.618;25.342;2023-06-01T04:19:18;100236.97;;;25.88;89.76
7333;BME280;3707;43.618;25.342;2023-06-01T04:21:45;100311.75;;;25.79;90.20
7333;BME280;3707;43.618;25.342;2023-06-01T04:24:11;100284.25;;;25.40;93.83
7333;BME280;3707;43.618;25.342;2023-06-01T04:26:38;100292.97;;;26.04;90.07
7333;BME280;3707;43.618;25.342;2023-06-01T04:29:05;100315.81;;;26.84;86.28
7333;BME280;3707;43.618;25.342;2023-06-01T04:31:34;100318.00;;;27.48;79.57
7333;BME280;3707;43.618;25.342;2023-06-01T04:34:00;100323.38;;;28.15;75.61
7333;BME280;3707;43.618;25.342;2023-06-01T04:36:29;100331.47;;;28.46;71.55
7333;BME280;3707;43.618;25.342;2023-06-01T04:38:55;100333.34;;;27.94;74.75
7333;BME280;3707;43.618;25.342;2023-06-01T04:41:23;100339.47;;;27.62;74.05
7333;BME280;3707;43.618;25.342;2023-06-01T04:43:50;100330.59;;;27.08;79.27
7333;BME280;3707;43.618;25.342;2023-06-01T04:46:20;100322.00;;;27.03;80.93
7333;BME280;3707;43.618;25.342;2023-06-01T04:48:49;100288.53;;;27.51;79.41
7333;BME280;3707;43.618;25.342;2023-06-01T04:51:17;100328.59;;;28.34;73.69
7333;BME280;3707;43.618;25.342;2023-06-01T04:53:50;100331.16;;;28.84;69.63
7333;BME280;3707;43.618;25.342;2023-06-01T04:56:18;100335.41;;;28.55;68.17
7333;BME280;3707;43.618;25.342;2023-06-01T04:58:46;100337.03;;;28.90;66.85
7333;BME280;3707;43.618;25.342;2023-06-01T05:01:14;100340.22;;;28.48;66.65
7333;BME280;3707;43.618;25.342;2023-06-01T05:03:42;100340.63;;;29.05;65.61
7333;BME280;3707;43.618;25.342;2023-06-01T05:06:10;100349.16;;;29.12;64.97
7333;BME280;3707;43.618;25.342;2023-06-01T05:08:37;100333.41;;;29.07;64.15
7333;BME280;3707;43.618;25.342;2023-06-01T05:11:07;100349.50;;;29.37;62.13
7333;BME280;3707;43.618;25.342;2023-06-01T05:13:34;100333.44;;;28.43;66.24
7333;BME280;3707;43.618;25.342;2023-06-01T05:16:02;100347.88;;;27.89;70.40
7333;BME280;3707;43.618;25.342;2023-06-01T05:18:29;100317.31;;;27.79;72.06
7333;BME280;3707;43.618;25.342;2023-06-01T05:20:56;100331.63;;;28.59;69.29
7333;BME280;3707;43.618;25.342;2023-06-01T05:23:23;100340.13;;;28.98;63.60
7333;BME280;3707;43.618;25.342;2023-06-01T05:25:49;100336.03;;;28.60;66.40
7333;BME280;3707;43.618;25.342;2023-06-01T05:28:18;100310.25;;;28.43;66.10
7333;BME280;3707;43.618;25.342;2023-06-01T05:30:46;100336.63;;;28.17;67.97
7333;BME280;3707;43.618;25.342;2023-06-01T05:33:12;100317.78;;;27.70;71.57
7333;BME280;3707;43.618;25.342;2023-06-01T05:35:39;100218.19;;;26.49;75.27
7333;BME280;3707;43.618;25.342;2023-06-01T05:38:06;100250.38;;;27.50;71.17
7333;BME280;3707;43.618;25.342;2023-06-01T05:40:33;100282.50;;;26.94;75.21
7333;BME280;3707;43.618;25.342;2023-06-01T05:43:01;100261.59;;;26.68;75.98
7333;BME280;3707;43.618;25.342;2023-06-01T05:45:29;100325.66;;;26.45;80.41
7333;BME280;3707;43.618;25.342;2023-06-01T05:47:56;100283.56;;;25.35;86.39
7333;BME280;3707;43.618;25.342;2023-06-01T05:50:23;100341.84;;;25.16;91.53
7333;BME280;3707;43.618;25.342;2023-06-01T05:52:50;100221.75;;;24.24;95.01
7333;BME280;3707;43.618;25.342;2023-06-01T05:55:16;100295.63;;;24.55;99.24
7333;BME280;3707;43.618;25.342;2023-06-01T05:57:43;100260.38;;;24.53;98.62
7333;BME280;3707;43.618;25.342;2023-06-01T06:00:12;100348.78;;;25.20;97.29
7333;BME280;3707;43.618;25.342;2023-06-01T06:02:42;100324.22;;;24.70;98.07
7333;BME280;3707;43.618;25.342;2023-06-01T06:05:09;100265.94;;;23.76;100.00
7333;BME280;3707;43.618;25.342;2023-06-01T06:07:36;100360.91;;;24.36;100.00
7333;BME280;3707;43.618;25.342;2023-06-01T06:10:04;100270.34;;;24.00;100.00
7333;BME280;3707;43.618;25.342;2023-06-01T06:12:30;100333.03;;;24.47;100.00
7333;BME280;3707;43.618;25.342;2023-06-01T06:14:57;100320.19;;;24.83;100.00
7333;BME280;3707;43.618;25.342;2023-06-01T06:17:24;100356.84;;;25.39;98.92
7333;BME280;3707;43.618;25.342;2023-06-01T06:19:52;100362.47;;;25.31;99.02
7333;BME280;3707;43.618;25.342;2023-06-01T06:22:19;100338.56;;;25.11;99.61
7333;BME280;3707;43.618;25.342;2023-06-01T06:24:46;100287.69;;;25.00;97.61
7333;BME280;3707;43.618;25.342;2023-06-01T06:27:14;100328.41;;;25.21;94.57
7333;BME280;3707;43.618;25.342;2023-06-01T06:29:41;100349.69;;;25.41;95.79
7333;BME280;3707;43.618;25.342;2023-06-01T06:32:08;100363.44;;;25.72;94.08
7333;BME280;3707;43.618;25.342;2023-06-01T06:34:35;100317.16;;;25.36;95.32
7333;BME280;3707;43.618;25.342;2023-06-01T06:37:04;100365.75;;;25.80;94.94
7333;BME280;3707;43.618;25.342;2023-06-01T06:39:32;100300.09;;;25.63;95.91
7333;BME280;3707;43.618;25.342;2023-06-01T06:41:59;100265.72;;;24.96;95.30
7333;BME280;3707;43.618;25.342;2023-06-01T06:44:26;100301.00;;;24.98;97.21
7333;BME280;3707;43.618;25.342;2023-06-01T06:46:53;100280.84;;;24.94;100.00
7333;BME280;3707;43.618;25.342;2023-06-01T06:49:20;100351.00;;;25.52;98.23
7333;BME280;3707;43.618;25.342;2023-06-01T06:51:46;100361.59;;;25.74;97.67
7333;BME280;3707;43.618;25.342;2023-06-01T06:54:15;100318.94;;;25.57;100.00
7333;BME280;3707;43.618;25.342;2023-06-01T06:56:41;100358.00;;;25.75;98.15
7333;BME280;3707;43.618;25.342;2023-06-01T06:59:09;100277.97;;;25.21;100.00
7333;BME280;3707;43.618;25.342;2023-06-01T07:01:36;100363.84;;;25.83;100.00
7333;BME280;3707;43.618;25.342;2023-06-01T07:04:03;100321.34;;;25.63;97.74
7333;BME280;3707;43.618;25.342;2023-06-01T07:06:31;100352.78;;;25.52;100.00
7333;BME280;3707;43.618;25.342;2023-06-01T07:08:59;100332.50;;;25.49;100.00
7333;BME280;3707;43.618;25.342;2023-06-01T07:11:28;100339.94;;;25.41;100.00
7333;BME280;3707;43.618;25.342;2023-06-01T07:13:55;100306.88;;;25.06;100.00
7333;BME280;3707;43.618;25.342;2023-06-01T07:16:23;100308.53;;;25.09;100.00
7333;BME280;3707;43.618;25.342;2023-06-01T07:18:51;100278.91;;;25.20;100.00
7333;BME280;3707;43.618;25.342;2023-06-01T07:21:18;100356.88;;;25.81;100.00
7333;BME280;3707;43.618;25.342;2023-06-01T07:23:44;100259.63;;;25.36;100.00
7333;BME280;3707;43.618;25.342;2023-06-01T07:26:11;100342.94;;;25.96;98.88
7333;BME280;3707;43.618;25.342;2023-06-01T07:28:39;100366.22;;;26.30;97.07
7333;BME280;3707;43.618;25.342;2023-06-01T07:31:07;100371.28;;;26.54;95.69
7333;BME280;3707;43.618;25.342;2023-06-01T07:33:34;100368.50;;;25.78;96.48
7333;BME280;3707;43.618;25.342;2023-06-01T07:36:03;100376.38;;;25.38;99.60
7333;BME280;3707;43.618;25.342;2023-06-01T07:38:30;100286.00;;;24.76;100.00
7333;BME280;3707;43.618;25.342;2023-06-01T07:40:58;100335.34;;;25.45;100.00
7333;BME280;3707;43.618;25.342;2023-06-01T07:43:25;100343.47;;;26.04;96.67
7333;BME280;3707;43.618;25.342;2023-06-01T07:45:53;100345.13;;;25.86;96.07
7333;BME280;3707;43.618;25.342;2023-06-01T07:48:20;100338.63;;;25.93;96.72
7333;BME280;3707;43.618;25.342;2023-06-01T07:50:47;100361.84;;;26.68;95.48
7333;BME280;3707;43.618;25.342;2023-06-01T07:53:14;100274.91;;;26.49;92.04
7333;BME280;3707;43.618;25.342;2023-06-01T07:55:40;100328.16;;;26.67;90.30
7333;BME280;3707;43.618;25.342;2023-06-01T07:58:09;100305.81;;;26.52;89.87
7333;BME280;3707;43.618;25.342;2023-06-01T08:00:35;100299.06;;;26.45;90.21
7333;BME280;3707;43.618;25.342;2023-06-01T08:03:04;100339.03;;;26.81;89.68
7333;BME280;3707;43.618;25.342;2023-06-01T08:05:34;100322.47;;;26.18;93.49
7333;BME280;3707;43.618;25.342;2023-06-01T08:08:01;100343.63;;;25.79;100.00
7333;BME280;3707;43.618;25.342;2023-06-01T08:10:28;100310.41;;;26.09;99.18
7333;BME280;3707;43.618;25.342;2023-06-01T08:12:55;100309.19;;;26.17;97.57
7333;BME280;3707;43.618;25.342;2023-06-01T08:15:23;100271.25;;;25.74;97.44
7333;BME280;3707;43.618;25.342;2023-06-01T08:17:51;100279.22;;;25.74;98.82
7333;BME280;3707;43.618;25.342;2023-06-01T08:20:19;100298.03;;;26.08;98.83
7333;BME280;3707;43.618;25.342;2023-06-01T08:22:48;100325.22;;;26.35;97.50
7333;BME280;3707;43.618;25.342;2023-06-01T08:25:16;100271.59;;;26.05;96.68
7333;BME280;3707;43.618;25.342;2023-06-01T08:27:43;100344.91;;;26.31;96.23
7333;BME280;3707;43.618;25.342;2023-06-01T08:30:10;100184.56;;;25.33;97.23
7333;BME280;3707;43.618;25.342;2023-06-01T08:32:37;100238.19;;;25.81;97.47
7333;BME280;3707;43.618;25.342;2023-06-01T08:35:06;100306.13;;;26.26;97.54
7333;BME280;3707;43.618;25.342;2023-06-01T08:37:34;100180.13;;;25.53;100.00
7333;BME280;3707;43.618;25.342;2023-06-01T08:40:02;100331.97;;;26.42;98.20
7333;BME280;3707;43.618;25.342;2023-06-01T08:42:39;100241.75;;;26.00;98.31
7333;BME280;3707;43.618;25.342;2023-06-01T08:45:11;100251.50;;;25.80;98.66
7333;BME280;3707;43.618;25.342;2023-06-01T08:47:39;100264.47;;;25.47;100.00
7333;BME280;3707;43.618;25.342;2023-06-01T08:50:09;100250.69;;;25.59;100.00
7333;BME280;3707;43.618;25.342;2023-06-01T08:52:38;100261.84;;;25.67;100.00
7333;BME280;3707;43.618;25.342;2023-06-01T08:55:05;100295.09;;;25.96;100.00
7333;BME280;3707;43.618;25.342;2023-06-01T08:57:32;100299.09;;;26.04;100.00
7333;BME280;3707;43.618;25.342;2023-06-01T08:59:59;100314.78;;;26.31;100.00
7333;BME280;3707;43.618;25.342;2023-06-01T09:02:26;100286.31;;;26.51;98.39
7333;BME280;3707;43.618;25.342;2023-06-01T09:04:53;100271.50;;;26.83;95.17
7333;BME280;3707;43.618;25.342;2023-06-01T09:07:20;100264.03;;;26.91;91.81
7333;BME280;3707;43.618;25.342;2023-06-01T09:09:49;100290.56;;;26.93;92.08
7333;BME280;3707;43.618;25.342;2023-06-01T09:12:21;100277.06;;;26.60;93.35
7333;BME280;3707;43.618;25.342;2023-06-01T09:14:49;100301.00;;;26.79;94.78
7333;BME280;3707;43.618;25.342;2023-06-01T09:17:21;100306.78;;;27.05;93.65
7333;BME280;3707;43.618;25.342;2023-06-01T09:19:52;100246.66;;;26.47;94.03
7333;BME280;3707;43.618;25.342;2023-06-01T09:22:19;100308.09;;;26.97;94.03
7333;BME280;3707;43.618;25.342;2023-06-01T09:24:57;100305.22;;;27.01;91.66
7333;BME280;3707;43.618;25.342;2023-06-01T09:27:25;100300.84;;;26.63;92.74
7333;BME280;3707;43.618;25.342;2023-06-01T09:29:56;100304.88;;;26.53;95.89
7333;BME280;3707;43.618;25.342;2023-06-01T09:32:24;100224.09;;;26.37;94.02
7333;BME280;3707;43.618;25.342;2023-06-01T09:34:51;100273.22;;;27.03;90.13
7333;BME280;3707;43.618;25.342;2023-06-01T09:37:20;100304.78;;;26.54;88.84
7333;BME280;3707;43.618;25.342;2023-06-01T09:39:47;100260.94;;;26.63;87.06
7333;BME280;3707;43.618;25.342;2023-06-01T09:42:15;100287.09;;;27.27;83.01
7333;BME280;3707;43.618;25.342;2023-06-01T09:44:42;100293.97;;;27.14;79.00
7333;BME280;3707;43.618;25.342;2023-06-01T09:47:10;100287.25;;;27.24;79.31
7333;BME280;3707;43.618;25.342;2023-06-01T09:49:39;100276.00;;;27.36;79.03
7333;BME280;3707;43.618;25.342;2023-06-01T09:52:11;100261.28;;;27.46;79.02
7333;BME280;3707;43.618;25.342;2023-06-01T09:54:41;100260.00;;;27.36;76.65
7333;BME280;3707;43.618;25.342;2023-06-01T09:57:09;100262.31;;;27.61;81.78
7333;BME280;3707;43.618;25.342;2023-06-01T09:59:42;100281.53;;;27.83;79.26
7333;BME280;3707;43.618;25.342;2023-06-01T10:02:12;100274.09;;;27.89;78.09
7333;BME280;3707;43.618;25.342;2023-06-01T10:04:41;100280.97;;;27.93;79.07
7333;BME280;3707;43.618;25.342;2023-06-01T10:07:08;100279.78;;;28.16;75.54
7333;BME280;3707;43.618;25.342;2023-06-01T10:09:37;100268.88;;;28.03;76.50
7333;BME280;3707;43.618;25.342;2023-06-01T10:12:06;100275.47;;;27.64;72.79
7333;BME280;3707;43.618;25.342;2023-06-01T10:14:36;100269.97;;;27.67;71.56
7333;BME280;3707;43.618;25.342;2023-06-01T10:17:05;100273.78;;;27.44;71.72
7333;BME280;3707;43.618;25.342;2023-06-01T10:19:32;100270.22;;;27.45;72.12
7333;BME280;3707;43.618;25.342;2023-06-01T10:22:00;100279.25;;;27.41;70.17
7333;BME280;3707;43.618;25.342;2023-06-01T10:24:27;100274.69;;;27.26;73.17
7333;BME280;3707;43.618;25.342;2023-06-01T10:27:01;100274.28;;;27.52;74.62
7333;BME280;3707;43.618;25.342;2023-06-01T10:29:32;100268.16;;;27.67;74.32
7333;BME280;3707;43.618;25.342;2023-06-01T10:32:02;100254.34;;;27.76;74.55
7333;BME280;3707;43.618;25.342;2023-06-01T10:34:41;100251.41;;;27.48;75.26
7333;BME280;3707;43.618;25.342;2023-06-01T10:37:17;100259.19;;;27.85;74.93
7333;BME280;3707;43.618;25.342;2023-06-01T10:39:44;100254.75;;;27.69;73.16
7333;BME280;3707;43.618;25.342;2023-06-01T10:42:36;100254.47;;;27.90;73.64
7333;BME280;3707;43.618;25.342;2023-06-01T10:45:05;100253.19;;;27.97;74.14
7333;BME280;3707;43.618;25.342;2023-06-01T10:47:45;100247.41;;;28.22;69.38
7333;BME280;3707;43.618;25.342;2023-06-01T10:50:18;100248.91;;;27.95;72.98
7333;BME280;3707;43.618;25.342;2023-06-01T10:52:45;100242.75;;;27.77;73.91
7333;BME280;3707;43.618;25.342;2023-06-01T10:55:21;100225.66;;;27.97;74.12
7333;BME280;3707;43.618;25.342;2023-06-01T10:57:48;100237.13;;;27.66;72.45
7333;BME280;3707;43.618;25.342;2023-06-01T11:00:18;100218.84;;;28.08;73.51
7333;BME280;3707;43.618;25.342;2023-06-01T11:02:51;100240.13;;;28.26;65.99
7333;BME280;3707;43.618;25.342;2023-06-01T11:05:40;100228.69;;;28.24;68.62
7333;BME280;3707;43.618;25.342;2023-06-01T11:08:08;100232.13;;;28.26;66.41
7333;BME280;3707;43.618;25.342;2023-06-01T11:10:54;100227.16;;;28.35;64.06
7333;BME280;3707;43.618;25.342;2023-06-01T11:13:25;100219.41;;;28.46;63.09
7333;BME280;3707;43.618;25.342;2023-06-01T11:16:27;100232.47;;;28.51;63.51
7333;BME280;3707;43.618;25.342;2023-06-01T11:18:55;100164.63;;;27.92;60.61
7333;BME280;3707;43.618;25.342;2023-06-01T11:21:27;100230.41;;;28.40;59.92
7333;BME280;3707;43.618;25.342;2023-06-01T11:23:55;100223.38;;;28.39;60.70
7333;BME280;3707;43.618;25.342;2023-06-01T11:26:24;100218.34;;;28.33;58.96
7333;BME280;3707;43.618;25.342;2023-06-01T11:28:55;100206.00;;;28.32;57.24
7333;BME280;3707;43.618;25.342;2023-06-01T11:31:34;100187.38;;;28.31;56.35
7333;BME280;3707;43.618;25.342;2023-06-01T11:34:01;100140.03;;;27.87;54.08
7333;BME280;3707;43.618;25.342;2023-06-01T11:36:35;100195.47;;;28.45;54.04
7333;BME280;3707;43.618;25.342;2023-06-01T11:39:03;100196.75;;;28.38;54.57
7333;BME280;3707;43.618;25.342;2023-06-01T11:41:33;100186.97;;;28.38;53.58
7333;BME280;3707;43.618;25.342;2023-06-01T11:44:00;100183.28;;;28.25;53.66
7333;BME280;3707;43.618;25.342;2023-06-01T11:46:27;100178.47;;;27.99;51.62
7333;BME280;3707;43.618;25.342;2023-06-01T11:49:02;100164.47;;;27.95;51.61
7333;BME280;3707;43.618;25.342;2023-06-01T11:51:34;100174.38;;;28.56;50.32
7333;BME280;3707;43.618;25.342;2023-06-01T11:54:02;100171.09;;;28.51;45.89
7333;BME280;3707;43.618;25.342;2023-06-01T11:56:30;100145.53;;;28.47;49.67
7333;BME280;3707;43.618;25.342;2023-06-01T11:58:58;100168.69;;;28.78;48.97
7333;BME280;3707;43.618;25.342;2023-06-01T12:01:26;100141.56;;;28.54;50.72
7333;BME280;3707;43.618;25.342;2023-06-01T12:03:54;100149.28;;;28.29;50.25
7333;BME280;3707;43.618;25.342;2023-06-01T12:06:23;100144.81;;;28.14;49.39
7333;BME280;3707;43.618;25.342;2023-06-01T12:08:52;100154.84;;;28.08;51.37
7333;BME280;3707;43.618;25.342;2023-06-01T12:11:22;100137.22;;;28.37;49.15
7333;BME280;3707;43.618;25.342;2023-06-01T12:13:52;100137.41;;;28.80;51.08
7333;BME280;3707;43.618;25.342;2023-06-01T12:16:19;100137.91;;;28.86;50.39
7333;BME280;3707;43.618;25.342;2023-06-01T12:18:45;100125.91;;;28.93;48.98
7333;BME280;3707;43.618;25.342;2023-06-01T12:21:13;100138.63;;;29.04;50.24
7333;BME280;3707;43.618;25.342;2023-06-01T12:23:42;100120.97;;;29.01;51.20
7333;BME280;3707;43.618;25.342;2023-06-01T12:26:10;100120.56;;;28.93;52.37
7333;BME280;3707;43.618;25.342;2023-06-01T12:28:47;100123.72;;;29.30;50.19
7333;BME280;3707;43.618;25.342;2023-06-01T12:31:15;100132.09;;;29.24;49.33
7333;BME280;3707;43.618;25.342;2023-06-01T12:33:43;100129.25;;;29.27;48.69
7333;BME280;3707;43.618;25.342;2023-06-01T12:36:11;100126.59;;;29.27;49.59
7333;BME280;3707;43.618;25.342;2023-06-01T12:38:53;100124.50;;;29.32;46.80
7333;BME280;3707;43.618;25.342;2023-06-01T12:41:22;100129.84;;;29.46;47.46
7333;BME280;3707;43.618;25.342;2023-06-01T12:43:49;100128.75;;;28.90;44.81
7333;BME280;3707;43.618;25.342;2023-06-01T12:46:19;100121.16;;;28.98;47.94
7333;BME280;3707;43.618;25.342;2023-06-01T12:48:47;100072.59;;;28.62;49.10
7333;BME280;3707;43.618;25.342;2023-06-01T12:51:14;100113.06;;;29.00;47.74
7333;BME280;3707;43.618;25.342;2023-06-01T12:53:41;100100.59;;;28.71;50.51
7333;BME280;3707;43.618;25.342;2023-06-01T12:56:09;100110.41;;;28.25;50.08
7333;BME280;3707;43.618;25.342;2023-06-01T12:58:37;100113.53;;;27.84;53.16
7333;BME280;3707;43.618;25.342;2023-06-01T13:01:04;100114.75;;;27.79;53.96
7333;BME280;3707;43.618;25.342;2023-06-01T13:03:31;100119.03;;;27.81;53.68